sensor_id;sensor_type;location;lat;lon;timestamp;pressure;altitude;pressure_sealevel;temperature;humidity
71666;BME280;59503;53.486;10.196;2023-11-21T00:01:16;101056.50;;;8.64;100.00
71666;BME280;59503;53.486;10.196;2023-11-21T00:03:42;101052.66;;;8.53;100.00
71666;BME280;59503;53.486;10.196;2023-11-21T00:06:08;101054.25;;;8.54;100.00
71666;BME280;59503;53.486;10.196;2023-11-21T00:08:34;101065.31;;;8.49;100.00
71666;BME280;59503;53.486;10.196;2023-11-21T00:11:00;101066.66;;;8.43;100.00
71666;BME280;59503;53.486;10.196;2023-11-21T00:13:26;101058.75;;;8.38;100.00
71666;BME280;59503;53.486;10.196;2023-11-21T00:15:52;101069.59;;;8.38;100.00
71666;BME280;59503;53.486;10.196;2023-11-21T00:18:17;101063.75;;;8.24;100.00
71666;BME280;59503;53.486;10.196;2023-11-21T00:20:43;101077.84;;;8.30;100.00
71666;BME280;59503;53.486;10.196;2023-11-21T00:23:08;101081.69;;;8.29;100.00
71666;BME280;59503;53.486;10.196;2023-11-21T00:25:34;101091.47;;;8.21;100.00
71666;BME280;59503;53.486;10.196;2023-11-21T00:28:00;101088.97;;;8.16;100.00
71666;BME280;59503;53.486;10.196;2023-11-21T00:30:27;101089.44;;;8.06;100.00
71666;BME280;59503;53.486;10.196;2023-11-21T00:32:54;101097.53;;;8.06;100.00
71666;BME280;59503;53.486;10.196;2023-11-21T00:35:19;101082.63;;;8.00;100.00
71666;BME280;59503;53.486;10.196;2023-11-21T00:37:45;101075.19;;;7.97;100.00
71666;BME280;59503;53.486;10.196;2023-11-21T00:40:11;101091.63;;;7.92;100.00
71666;BME280;59503;53.486;10.196;2023-11-21T00:42:36;101087.00;;;7.81;100.00
71666;BME280;59503;53.486;10.196;2023-11-21T00:45:02;101094.66;;;7.79;100.00
71666;BME280;59503;53.486;10.196;2023-11-21T00:47:28;101107.25;;;7.75;100.00
71666;BME280;59503;53.486;10.196;2023-11-21T00:49:54;101104.97;;;7.65;100.00
71666;BME280;59503;53.486;10.196;2023-11-21T00:52:20;101109.59;;;7.64;100.00
71666;BME280;59503;53.486;10.196;2023-11-21T00:54:46;101116.91;;;7.64;100.00
71666;BME280;59503;53.486;10.196;2023-11-21T00:57:13;101119.03;;;7.58;100.00
71666;BME280;59503;53.486;10.196;2023-11-21T00:59:38;101119.63;;;7.43;100.00
71666;BME280;59503;53.486;10.196;2023-11-21T01:02:04;101133.50;;;7.41;100.00
71666;BME280;59503;53.486;10.196;2023-11-21T01:04:30;101123.22;;;7.35;100.00
71666;BME280;59503;53.486;10.196;2023-11-21T01:06:57;101141.41;;;7.26;100.00
71666;BME280;59503;53.486;10.196;2023-11-21T01:09:23;101147.47;;;7.23;100.00
71666;BME280;59503;53.486;10.196;2023-11-21T01:11:49;101157.25;;;7.15;100.00
71666;BME280;59503;53.486;10.196;2023-11-21T01:14:14;101160.66;;;7.04;100.00
71666;BME280;59503;53.486;10.196;2023-11-21T01:16:40;101164.34;;;6.99;100.00
71666;BME280;59503;53.486;10.196;2023-11-21T01:19:05;101171.84;;;6.94;100.00
71666;BME280;59503;53.486;10.196;2023-11-21T01:21:31;101167.09;;;6.91;100.00
71666;BME280;59503;53.486;10.196;2023-11-21T01:23:57;101184.44;;;6.90;100.00
71666;BME280;59503;53.486;10.196;2023-11-21T01:26:22;101188.13;;;6.85;100.00
71666;BME280;59503;53.486;10.196;2023-11-21T01:28:48;101190.81;;;6.85;100.00
71666;BME280;59503;53.486;10.196;2023-11-21T01:31:15;101179.38;;;6.80;100.00
71666;BME280;59503;53.486;10.196;2023-11-21T01:33:40;101177.34;;;6.77;100.00
71666;BME280;59503;53.486;10.196;2023-11-21T01:36:06;101193.56;;;6.77;100.00
71666;BME280;59503;53.486;10.196;2023-11-21T01:38:32;101180.66;;;6.74;100.00
71666;BME280;59503;53.486;10.196;2023-11-21T01:40:57;101193.25;;;6.70;100.00
71666;BME280;59503;53.486;10.196;2023-11-21T01:43:26;101193.25;;;6.70;100.00
71666;BME280;59503;53.486;10.196;2023-11-21T01:45:53;101191.41;;;6.62;100.00
71666;BME280;59503;53.486;10.196;2023-11-21T01:48:22;101189.78;;;6.61;100.00
71666;BME280;59503;53.486;10.196;2023-11-21T01:50:48;101202.97;;;6.62;100.00
71666;BME280;59503;53.486;10.196;2023-11-21T01:53:14;101194.59;;;6.55;100.00
71666;BME280;59503;53.486;10.196;2023-11-21T01:55:41;101189.38;;;6.50;100.00
71666;BME280;59503;53.486;10.196;2023-11-21T01:58:07;101206.81;;;6.53;100.00
71666;BME280;59503;53.486;10.196;2023-11-21T02:00:33;101202.41;;;6.48;100.00
71666;BME280;59503;53.486;10.196;2023-11-21T02:02:59;101214.63;;;6.46;100.00
71666;BME280;59503;53.486;10.196;2023-11-21T02:05:24;101207.66;;;6.45;100.00
71666;BME280;59503;53.486;10.196;2023-11-21T02:07:51;101203.06;;;6.37;100.00
71666;BME280;59503;53.486;10.196;2023-11-21T02:10:18;101214.31;;;6.39;100.00
71666;BME280;59503;53.486;10.196;2023-11-21T02:12:49;101220.19;;;6.41;100.00
71666;BME280;59503;53.486;10.196;2023-11-21T02:15:18;101221.81;;;6.42;100.00
71666;BME280;59503;53.486;10.196;2023-11-21T02:17:47;101228.31;;;6.41;100.00
71666;BME280;59503;53.486;10.196;2023-11-21T02:20:22;101221.19;;;6.36;100.00
71666;BME280;59503;53.486;10.196;2023-11-21T02:22:55;101234.38;;;6.29;100.00
71666;BME280;59503;53.486;10.196;2023-11-21T02:25:25;101245.50;;;6.27;100.00
71666;BME280;59503;53.486;10.196;2023-11-21T02:27:53;101246.13;;;6.24;100.00
71666;BME280;59503;53.486;10.196;2023-11-21T02:30:20;101250.88;;;6.27;100.00
71666;BME280;59503;53.486;10.196;2023-11-21T02:32:47;101249.94;;;6.23;100.00
71666;BME280;59503;53.486;10.196;2023-11-21T02:35:13;101242.81;;;6.19;100.00
71666;BME280;59503;53.486;10.196;2023-11-21T02:37:39;101252.19;;;6.21;100.00
71666;BME280;59503;53.486;10.196;2023-11-21T02:40:08;101247.56;;;6.13;100.00
71666;BME280;59503;53.486;10.196;2023-11-21T02:42:35;101262.34;;;6.24;100.00
71666;BME280;59503;53.486;10.196;2023-11-21T02:45:01;101264.41;;;6.19;100.00
71666;BME280;59503;53.486;10.196;2023-11-21T02:47:26;101272.81;;;6.17;100.00
71666;BME280;59503;53.486;10.196;2023-11-21T02:49:51;101278.22;;;6.17;100.00
71666;BME280;59503;53.486;10.196;2023-11-21T02:52:18;101282.31;;;6.15;100.00
71666;BME280;59503;53.486;10.196;2023-11-21T02:54:44;101293.28;;;6.18;100.00
71666;BME280;59503;53.486;10.196;2023-11-21T02:57:09;101281.41;;;6.11;100.00
71666;BME280;59503;53.486;10.196;2023-11-21T02:59:35;101290.75;;;6.13;100.00
71666;BME280;59503;53.486;10.196;2023-11-21T03:02:01;101302.66;;;6.12;100.00
71666;BME280;59503;53.486;10.196;2023-11-21T03:04:26;101296.78;;;6.10;100.00
71666;BME280;59503;53.486;10.196;2023-11-21T03:06:52;101296.63;;;6.07;100.00
71666;BME280;59503;53.486;10.196;2023-11-21T03:09:17;101300.59;;;6.09;100.00
71666;BME280;59503;53.486;10.196;2023-11-21T03:11:43;101303.31;;;6.09;100.00
71666;BME280;59503;53.486;10.196;2023-11-21T03:14:08;101283.28;;;6.02;100.00
71666;BME280;59503;53.486;10.196;2023-11-21T03:16:34;101291.06;;;6.12;100.00
71666;BME280;59503;53.486;10.196;2023-11-21T03:18:59;101295.69;;;6.11;100.00
71666;BME280;59503;53.486;10.196;2023-11-21T03:21:25;101297.44;;;6.07;100.00
71666;BME280;59503;53.486;10.196;2023-11-21T03:23:51;101301.69;;;6.08;100.00
71666;BME280;59503;53.486;10.196;2023-11-21T03:26:17;101300.94;;;6.08;100.00
71666;BME280;59503;53.486;10.196;2023-11-21T03:28:43;101305.69;;;6.02;100.00
71666;BME280;59503;53.486;10.196;2023-11-21T03:31:08;101312.97;;;6.02;100.00
71666;BME280;59503;53.486;10.196;2023-11-21T03:33:37;101309.78;;;6.00;100.00
71666;BME280;59503;53.486;10.196;2023-11-21T03:36:02;101318.03;;;6.03;100.00
71666;BME280;59503;53.486;10.196;2023-11-21T03:38:29;101322.50;;;5.99;100.00
71666;BME280;59503;53.486;10.196;2023-11-21T03:40:54;101333.78;;;6.01;100.00
71666;BME280;59503;53.486;10.196;2023-11-21T03:43:20;101340.59;;;5.99;100.00
71666;BME280;59503;53.486;10.196;2023-11-21T03:45:45;101346.78;;;5.99;100.00
71666;BME280;59503;53.486;10.196;2023-11-21T03:48:12;101353.44;;;6.02;100.00
71666;BME280;59503;53.486;10.196;2023-11-21T03:50:38;101355.97;;;5.98;100.00
71666;BME280;59503;53.486;10.196;2023-11-21T03:53:04;101356.31;;;5.97;100.00
71666;BME280;59503;53.486;10.196;2023-11-21T03:55:29;101360.91;;;5.96;100.00
71666;BME280;59503;53.486;10.196;2023-11-21T03:57:56;101365.19;;;5.97;100.00
71666;BME280;59503;53.486;10.196;2023-11-21T04:00:22;101370.44;;;5.94;100.00
71666;BME280;59503;53.486;10.196;2023-11-21T04:02:48;101372.81;;;5.95;100.00
71666;BME280;59503;53.486;10.196;2023-11-21T04:05:13;101370.75;;;5.92;100.00
71666;BME280;59503;53.486;10.196;2023-11-21T04:07:39;101379.31;;;5.94;100.00
71666;BME280;59503;53.486;10.196;2023-11-21T04:10:06;101378.22;;;5.95;100.00
71666;BME280;59503;53.486;10.196;2023-11-21T04:12:35;101386.13;;;5.92;100.00
71666;BME280;59503;53.486;10.196;2023-11-21T04:15:00;101394.41;;;5.95;100.00
71666;BME280;59503;53.486;10.196;2023-11-21T04:17:25;101393.91;;;5.93;100.00
71666;BME280;59503;53.486;10.196;2023-11-21T04:19:51;101394.22;;;5.92;100.00
71666;BME280;59503;53.486;10.196;2023-11-21T04:22:16;101399.31;;;5.93;100.00
71666;BME280;59503;53.486;10.196;2023-11-21T04:24:42;101406.47;;;5.89;100.00
71666;BME280;59503;53.486;10.196;2023-11-21T04:27:07;101411.84;;;5.89;100.00
71666;BME280;59503;53.486;10.196;2023-11-21T04:29:33;101410.25;;;5.88;100.00
71666;BME280;59503;53.486;10.196;2023-11-21T04:31:58;101417.41;;;5.84;100.00
71666;BME280;59503;53.486;10.196;2023-11-21T04:34:24;101425.50;;;5.84;100.00
71666;BME280;59503;53.486;10.196;2023-11-21T04:36:50;101420.88;;;5.85;100.00
71666;BME280;59503;53.486;10.196;2023-11-21T04:39:15;101421.66;;;5.85;100.00
71666;BME280;59503;53.486;10.196;2023-11-21T04:41:41;101416.91;;;5.82;100.00
71666;BME280;59503;53.486;10.196;2023-11-21T04:44:06;101430.06;;;5.84;100.00
71666;BME280;59503;53.486;10.196;2023-11-21T04:46:32;101438.34;;;5.87;100.00
71666;BME280;59503;53.486;10.196;2023-11-21T04:48:58;101446.44;;;5.87;100.00
71666;BME280;59503;53.486;10.196;2023-11-21T04:51:24;101442.63;;;5.88;100.00
71666;BME280;59503;53.486;10.196;2023-11-21T04:53:49;101448.00;;;5.88;100.00
71666;BME280;59503;53.486;10.196;2023-11-21T04:56:15;101450.22;;;5.86;100.00
71666;BME280;59503;53.486;10.196;2023-11-21T04:58:41;101447.53;;;5.86;100.00
71666;BME280;59503;53.486;10.196;2023-11-21T05:01:07;101460.09;;;5.91;100.00
71666;BME280;59503;53.486;10.196;2023-11-21T05:03:33;101444.81;;;5.86;100.00
71666;BME280;59503;53.486;10.196;2023-11-21T05:05:59;101448.34;;;5.87;100.00
71666;BME280;59503;53.486;10.196;2023-11-21T05:08:25;101448.34;;;5.87;100.00
71666;BME280;59503;53.486;10.196;2023-11-21T05:10:51;101452.47;;;5.84;100.00
71666;BME280;59503;53.486;10.196;2023-11-21T05:13:17;101452.91;;;5.86;100.00
71666;BME280;59503;53.486;10.196;2023-11-21T05:15:44;101466.28;;;5.83;100.00
71666;BME280;59503;53.486;10.196;2023-11-21T05:18:09;101461.66;;;5.83;100.00
71666;BME280;59503;53.486;10.196;2023-11-21T05:20:35;101463.81;;;5.81;100.00
71666;BME280;59503;53.486;10.196;2023-11-21T05:23:02;101470.84;;;5.82;100.00
71666;BME280;59503;53.486;10.196;2023-11-21T05:25:27;101470.66;;;5.79;100.00
71666;BME280;59503;53.486;10.196;2023-11-21T05:27:53;101460.81;;;5.74;100.00
71666;BME280;59503;53.486;10.196;2023-11-21T05:30:20;101475.41;;;5.82;100.00
71666;BME280;59503;53.486;10.196;2023-11-21T05:32:46;101474.03;;;5.84;100.00
71666;BME280;59503;53.486;10.196;2023-11-21T05:35:11;101484.34;;;5.82;100.00
71666;BME280;59503;53.486;10.196;2023-11-21T05:37:44;101486.72;;;5.84;100.00
71666;BME280;59503;53.486;10.196;2023-11-21T05:40:10;101497.84;;;5.82;100.00
71666;BME280;59503;53.486;10.196;2023-11-21T05:42:36;101504.28;;;5.81;100.00
71666;BME280;59503;53.486;10.196;2023-11-21T05:45:04;101500.63;;;5.77;100.00
71666;BME280;59503;53.486;10.196;2023-11-21T05:47:43;101505.22;;;5.77;100.00
71666;BME280;59503;53.486;10.196;2023-11-21T05:50:12;101516.81;;;5.77;100.00
71666;BME280;59503;53.486;10.196;2023-11-21T05:52:40;101514.44;;;5.76;100.00
71666;BME280;59503;53.486;10.196;2023-11-21T05:55:07;101509.81;;;5.76;100.00
71666;BME280;59503;53.486;10.196;2023-11-21T05:57:34;101514.44;;;5.76;100.00
71666;BME280;59503;53.486;10.196;2023-11-21T06:02:57;101520.47;;;5.73;100.00
71666;BME280;59503;53.486;10.196;2023-11-21T06:05:23;101525.06;;;5.72;100.00
71666;BME280;59503;53.486;10.196;2023-11-21T06:07:53;101539.16;;;5.69;100.00
71666;BME280;59503;53.486;10.196;2023-11-21T06:10:21;101534.84;;;5.68;100.00
71666;BME280;59503;53.486;10.196;2023-11-21T06:12:47;101545.66;;;5.68;100.00
71666;BME280;59503;53.486;10.196;2023-11-21T06:15:12;101552.03;;;5.72;100.00
71666;BME280;59503;53.486;10.196;2023-11-21T06:17:42;101564.56;;;5.77;100.00
71666;BME280;59503;53.486;10.196;2023-11-21T06:20:09;101556.78;;;5.75;100.00
71666;BME280;59503;53.486;10.196;2023-11-21T06:22:36;101565.03;;;5.70;100.00
71666;BME280;59503;53.486;10.196;2023-11-21T06:25:02;101569.47;;;5.75;100.00
71666;BME280;59503;53.486;10.196;2023-11-21T06:27:29;101577.56;;;5.75;100.00
71666;BME280;59503;53.486;10.196;2023-11-21T06:29:55;101586.47;;;5.75;100.00
71666;BME280;59503;53.486;10.196;2023-11-21T06:32:20;101581.50;;;5.69;100.00
71666;BME280;59503;53.486;10.196;2023-11-21T06:34:48;101587.59;;;5.74;100.00
71666;BME280;59503;53.486;10.196;2023-11-21T06:37:15;101584.22;;;5.69;100.00
71666;BME280;59503;53.486;10.196;2023-11-21T06:39:40;101588.97;;;5.72;100.00
71666;BME280;59503;53.486;10.196;2023-11-21T06:42:05;101597.19;;;5.67;100.00
71666;BME280;59503;53.486;10.196;2023-11-21T06:44:31;101606.59;;;5.69;100.00
71666;BME280;59503;53.486;10.196;2023-11-21T06:46:58;101599.91;;;5.67;100.00
71666;BME280;59503;53.486;10.196;2023-11-21T06:49:23;101614.38;;;5.71;100.00
71666;BME280;59503;53.486;10.196;2023-11-21T06:51:49;101610.38;;;5.68;100.00
71666;BME280;59503;53.486;10.196;2023-11-21T06:54:14;101614.69;;;5.69;100.00
71666;BME280;59503;53.486;10.196;2023-11-21T06:56:40;101619.78;;;5.71;100.00
71666;BME280;59503;53.486;10.196;2023-11-21T06:59:06;101622.16;;;5.72;100.00
71666;BME280;59503;53.486;10.196;2023-11-21T07:01:31;101615.66;;;5.73;100.00
71666;BME280;59503;53.486;10.196;2023-11-21T07:04:05;101620.72;;;5.75;100.00
71666;BME280;59503;53.486;10.196;2023-11-21T07:06:31;101628.50;;;5.76;100.00
71666;BME280;59503;53.486;10.196;2023-11-21T07:08:56;101626.31;;;5.78;100.00
71666;BME280;59503;53.486;10.196;2023-11-21T07:11:22;101630.97;;;5.86;100.00
71666;BME280;59503;53.486;10.196;2023-11-21T07:13:47;101633.56;;;5.91;100.00
71666;BME280;59503;53.486;10.196;2023-11-21T07:16:13;101636.75;;;5.93;100.00
71666;BME280;59503;53.486;10.196;2023-11-21T07:18:40;101644.66;;;5.90;100.00
71666;BME280;59503;53.486;10.196;2023-11-21T07:21:05;101656.44;;;5.94;100.00
71666;BME280;59503;53.486;10.196;2023-11-21T07:23:31;101658.34;;;5.93;100.00
71666;BME280;59503;53.486;10.196;2023-11-21T07:25:56;101664.22;;;5.95;100.00
71666;BME280;59503;53.486;10.196;2023-11-21T07:28:24;101674.72;;;5.97;100.00
71666;BME280;59503;53.486;10.196;2023-11-21T07:30:50;101670.44;;;5.96;100.00
71666;BME280;59503;53.486;10.196;2023-11-21T07:33:16;101677.84;;;5.90;100.00
71666;BME280;59503;53.486;10.196;2023-11-21T07:35:42;101683.25;;;5.90;100.00
71666;BME280;59503;53.486;10.196;2023-11-21T07:38:08;101689.25;;;5.87;100.00
71666;BME280;59503;53.486;10.196;2023-11-21T07:40:34;101700.84;;;5.88;100.00
71666;BME280;59503;53.486;10.196;2023-11-21T07:42:59;101706.25;;;5.88;100.00
71666;BME280;59503;53.486;10.196;2023-11-21T07:45:25;101693.03;;;5.86;100.00
71666;BME280;59503;53.486;10.196;2023-11-21T07:47:53;101694.66;;;5.87;100.00
71666;BME280;59503;53.486;10.196;2023-11-21T07:50:19;101694.97;;;5.86;100.00
71666;BME280;59503;53.486;10.196;2023-11-21T07:52:45;101707.84;;;5.89;100.00
71666;BME280;59503;53.486;10.196;2023-11-21T07:55:11;101705.63;;;5.91;100.00
71666;BME280;59503;53.486;10.196;2023-11-21T07:57:37;101715.63;;;5.90;100.00
71666;BME280;59503;53.486;10.196;2023-11-21T08:00:04;101710.41;;;5.94;100.00
71666;BME280;59503;53.486;10.196;2023-11-21T08:02:31;101711.22;;;5.94;100.00
71666;BME280;59503;53.486;10.196;2023-11-21T08:04:57;101721.19;;;5.94;100.00
71666;BME280;59503;53.486;10.196;2023-11-21T08:07:22;101713.78;;;5.99;100.00
71666;BME280;59503;53.486;10.196;2023-11-21T08:09:48;101716.50;;;5.99;100.00
71666;BME280;59503;53.486;10.196;2023-11-21T08:12:15;101726.97;;;6.01;100.00
71666;BME280;59503;53.486;10.196;2023-11-21T08:14:41;101731.13;;;6.07;100.00
71666;BME280;59503;53.486;10.196;2023-11-21T08:17:06;101731.63;;;6.09;100.00
71666;BME280;59503;53.486;10.196;2023-11-21T08:19:32;101731.19;;;6.15;100.00
71666;BME280;59503;53.486;10.196;2023-11-21T08:21:58;101735.97;;;6.18;100.00
71666;BME280;59503;53.486;10.196;2023-11-21T08:24:24;101741.38;;;6.18;100.00
71666;BME280;59503;53.486;10.196;2023-11-21T08:26:50;101738.66;;;6.18;100.00
71666;BME280;59503;53.486;10.196;2023-11-21T08:29:17;101743.28;;;6.18;100.00
71666;BME280;59503;53.486;10.196;2023-11-21T08:31:43;101740.28;;;6.19;100.00
71666;BME280;59503;53.486;10.196;2023-11-21T08:34:12;101746.19;;;6.21;100.00
71666;BME280;59503;53.486;10.196;2023-11-21T08:36:44;101745.88;;;6.23;100.00
71666;BME280;59503;53.486;10.196;2023-11-21T08:39:10;101756.66;;;6.23;100.00
71666;BME280;59503;53.486;10.196;2023-11-21T08:41:36;101762.06;;;6.23;100.00
71666;BME280;59503;53.486;10.196;2023-11-21T08:44:02;101769.03;;;6.24;100.00
71666;BME280;59503;53.486;10.196;2023-11-21T08:46:31;101759.50;;;6.18;100.00
71666;BME280;59503;53.486;10.196;2023-11-21T08:48:56;101771.63;;;6.29;100.00
71666;BME280;59503;53.486;10.196;2023-11-21T08:51:22;101781.97;;;6.36;100.00
71666;BME280;59503;53.486;10.196;2023-11-21T08:53:47;101772.63;;;6.33;100.00
71666;BME280;59503;53.486;10.196;2023-11-21T08:56:13;101783.47;;;6.42;100.00
71666;BME280;59503;53.486;10.196;2023-11-21T08:58:41;101777.94;;;6.47;100.00
71666;BME280;59503;53.486;10.196;2023-11-21T09:01:07;101777.94;;;6.47;100.00
71666;BME280;59503;53.486;10.196;2023-11-21T09:03:32;101788.94;;;6.50;100.00
71666;BME280;59503;53.486;10.196;2023-11-21T09:05:59;101789.72;;;6.51;100.00
71666;BME280;59503;53.486;10.196;2023-11-21T09:08:25;101799.88;;;6.54;100.00
71666;BME280;59503;53.486;10.196;2023-11-21T09:10:50;101807.53;;;6.52;100.00
71666;BME280;59503;53.486;10.196;2023-11-21T09:13:17;101818.91;;;6.49;100.00
71666;BME280;59503;53.486;10.196;2023-11-21T09:15:43;101821.16;;;6.47;100.00
71666;BME280;59503;53.486;10.196;2023-11-21T09:18:15;101824.16;;;6.45;100.00
71666;BME280;59503;53.486;10.196;2023-11-21T09:20:41;101824.94;;;6.46;100.00
71666;BME280;59503;53.486;10.196;2023-11-21T09:23:09;101820.66;;;6.45;100.00
71666;BME280;59503;53.486;10.196;2023-11-21T09:25:34;101832.72;;;6.47;100.00
71666;BME280;59503;53.486;10.196;2023-11-21T09:28:00;101832.41;;;6.49;100.00
71666;BME280;59503;53.486;10.196;2023-11-21T09:30:25;101834.75;;;6.64;100.00
71666;BME280;59503;53.486;10.196;2023-11-21T09:32:51;101837.44;;;6.64;100.00
71666;BME280;59503;53.486;10.196;2023-11-21T09:35:17;101841.28;;;6.63;100.00
71666;BME280;59503;53.486;10.196;2023-11-21T09:37:44;101844.47;;;6.65;100.00
71666;BME280;59503;53.486;10.196;2023-11-21T09:40:11;101846.53;;;6.68;100.00
71666;BME280;59503;53.486;10.196;2023-11-21T09:42:54;101846.41;;;6.73;100.00
71666;BME280;59503;53.486;10.196;2023-11-21T09:45:28;101858.81;;;6.74;100.00
71666;BME280;59503;53.486;10.196;2023-11-21T09:47:55;101855.03;;;6.75;100.00
71666;BME280;59503;53.486;10.196;2023-11-21T09:50:24;101855.19;;;6.78;100.00
71666;BME280;59503;53.486;10.196;2023-11-21T09:52:58;101855.38;;;6.82;100.00
71666;BME280;59503;53.486;10.196;2023-11-21T09:55:29;101865.13;;;6.91;100.00
71666;BME280;59503;53.486;10.196;2023-11-21T09:57:56;101869.25;;;6.89;100.00
71666;BME280;59503;53.486;10.196;2023-11-21T10:00:22;101870.53;;;6.91;100.00
71666;BME280;59503;53.486;10.196;2023-11-21T10:02:49;101879.44;;;6.92;100.00
71666;BME280;59503;53.486;10.196;2023-11-21T10:05:15;101879.75;;;6.90;100.00
71666;BME280;59503;53.486;10.196;2023-11-21T10:07:46;101880.22;;;6.92;100.00
71666;BME280;59503;53.486;10.196;2023-11-21T10:10:13;101884.84;;;6.92;100.00
71666;BME280;59503;53.486;10.196;2023-11-21T10:12:39;101885.75;;;6.87;100.00
71666;BME280;59503;53.486;10.196;2023-11-21T10:15:08;101892.16;;;6.91;100.00
71666;BME280;59503;53.486;10.196;2023-11-21T10:17:36;101895.72;;;7.00;100.00
71666;BME280;59503;53.486;10.196;2023-11-21T10:20:10;101901.13;;;7.00;100.00
71666;BME280;59503;53.486;10.196;2023-11-21T10:22:41;101901.13;;;7.00;100.00
71666;BME280;59503;53.486;10.196;2023-11-21T10:25:10;101893.47;;;7.02;100.00
71666;BME280;59503;53.486;10.196;2023-11-21T10:27:37;101883.16;;;7.04;100.00
71666;BME280;59503;53.486;10.196;2023-11-21T10:30:06;101881.88;;;7.02;100.00
71666;BME280;59503;53.486;10.196;2023-11-21T10:32:41;101889.00;;;6.98;100.00
71666;BME280;59503;53.486;10.196;2023-11-21T10:35:08;101896.69;;;7.04;100.00
71666;BME280;59503;53.486;10.196;2023-11-21T10:37:37;101880.47;;;7.04;100.00
71666;BME280;59503;53.486;10.196;2023-11-21T10:40:07;101900.91;;;7.19;100.00
71666;BME280;59503;53.486;10.196;2023-11-21T10:42:33;101903.63;;;7.19;100.00
71666;BME280;59503;53.486;10.196;2023-11-21T10:44:59;101907.59;;;7.21;100.00
71666;BME280;59503;53.486;10.196;2023-11-21T10:47:26;101904.44;;;7.28;100.00
71666;BME280;59503;53.486;10.196;2023-11-21T10:49:51;101914.03;;;7.34;100.00
71666;BME280;59503;53.486;10.196;2023-11-21T10:52:21;101916.09;;;7.37;100.00
71666;BME280;59503;53.486;10.196;2023-11-21T10:54:47;101904.94;;;7.30;100.00
71666;BME280;59503;53.486;10.196;2023-11-21T10:57:17;101919.63;;;7.37;100.00
71666;BME280;59503;53.486;10.196;2023-11-21T10:59:46;101914.59;;;7.22;100.00
71666;BME280;59503;53.486;10.196;2023-11-21T11:02:30;101919.84;;;7.27;100.00
71666;BME280;59503;53.486;10.196;2023-11-21T11:04:59;101914.13;;;7.20;100.00
71666;BME280;59503;53.486;10.196;2023-11-21T11:07:27;101921.59;;;7.23;100.00
71666;BME280;59503;53.486;10.196;2023-11-21T11:09:56;101917.16;;;7.27;100.00
71666;BME280;59503;53.486;10.196;2023-11-21T11:12:23;101920.88;;;7.40;100.00
71666;BME280;59503;53.486;10.196;2023-11-21T11:14:49;101909.09;;;7.36;100.00
71666;BME280;59503;53.486;10.196;2023-11-21T11:17:16;101915.97;;;7.42;100.00
71666;BME280;59503;53.486;10.196;2023-11-21T11:19:46;101928.69;;;7.41;100.00
71666;BME280;59503;53.486;10.196;2023-11-21T11:22:19;101937.28;;;7.43;100.00
71666;BME280;59503;53.486;10.196;2023-11-21T11:24:56;101934.41;;;7.40;100.00
71666;BME280;59503;53.486;10.196;2023-11-21T11:27:52;101934.94;;;7.50;100.00
71666;BME280;59503;53.486;10.196;2023-11-21T11:30:54;101932.88;;;7.47;100.00
71666;BME280;59503;53.486;10.196;2023-11-21T11:33:46;101927.91;;;7.49;100.00
71666;BME280;59503;53.486;10.196;2023-11-21T11:38:51;101927.59;;;7.51;100.00
71666;BME280;59503;53.486;10.196;2023-11-21T11:41:29;101934.13;;;7.50;100.00
71666;BME280;59503;53.486;10.196;2023-11-21T11:43:58;101941.94;;;7.51;100.00
71666;BME280;59503;53.486;10.196;2023-11-21T11:46:43;101942.78;;;7.61;100.00
71666;BME280;59503;53.486;10.196;2023-11-21T11:49:23;101944.53;;;7.65;100.00
71666;BME280;59503;53.486;10.196;2023-11-21T11:54:55;101941.81;;;7.56;100.00
71666;BME280;59503;53.486;10.196;2023-11-21T11:57:24;101946.28;;;7.61;100.00
71666;BME280;59503;53.486;10.196;2023-11-21T12:02:37;101939.16;;;7.34;100.00
71666;BME280;59503;53.486;10.196;2023-11-21T12:05:13;101954.94;;;7.41;100.00
71666;BME280;59503;53.486;10.196;2023-11-21T12:07:55;101954.09;;;7.32;100.00
71666;BME280;59503;53.486;10.196;2023-11-21T12:10:24;101954.09;;;7.32;100.00
71666;BME280;59503;53.486;10.196;2023-11-21T12:12:51;101958.53;;;7.28;100.00
71666;BME280;59503;53.486;10.196;2023-11-21T12:15:18;101962.84;;;7.29;100.00
71666;BME280;59503;53.486;10.196;2023-11-21T12:17:44;101950.59;;;7.31;100.00
71666;BME280;59503;53.486;10.196;2023-11-21T12:20:14;101966.00;;;7.31;100.00
71666;BME280;59503;53.486;10.196;2023-11-21T12:22:43;101984.00;;;7.27;100.00
71666;BME280;59503;53.486;10.196;2023-11-21T12:25:09;101975.88;;;7.27;100.00
71666;BME280;59503;53.486;10.196;2023-11-21T12:27:34;101984.13;;;7.22;100.00
71666;BME280;59503;53.486;10.196;2023-11-21T12:30:00;101993.44;;;7.16;100.00
71666;BME280;59503;53.486;10.196;2023-11-21T12:32:26;101991.34;;;7.13;100.00
71666;BME280;59503;53.486;10.196;2023-11-21T12:34:52;101997.63;;;7.22;100.00
71666;BME280;59503;53.486;10.196;2023-11-21T12:37:17;102003.94;;;7.17;100.00
71666;BME280;59503;53.486;10.196;2023-11-21T12:39:43;102004.25;;;7.16;100.00
71666;BME280;59503;53.486;10.196;2023-11-21T12:42:09;102007.88;;;7.11;100.00
71666;BME280;59503;53.486;10.196;2023-11-21T12:44:35;102010.28;;;7.13;100.00
71666;BME280;59503;53.486;10.196;2023-11-21T12:47:02;102008.31;;;7.05;100.00
71666;BME280;59503;53.486;10.196;2023-11-21T12:49:28;102002.66;;;6.93;100.00
71666;BME280;59503;53.486;10.196;2023-11-21T12:51:53;102022.34;;;7.07;100.00